Time;durP1;ratioP1;P1;durP2;ratioP2;P2;SDS_P1;SDS_P2;PMS_P1;PMS_P2;Temp;Humidity;BMP_temperature;BMP_pressure;BME280_temperature;BME280_humidity;BME280_pressure;Samples;Min_cycle;Max_cycle;Signal;HPM_P1;HPM_P2
2020/12/05 00:02:16;;;;;;;14.93;6.18;;;2.70;99.90;;;;;;4997499;28;20026;-41
2020/12/05 00:04:42;;;;;;;20.85;5.45;;;2.70;99.90;;;;;;4998710;28;20030;-42
2020/12/05 00:07:08;;;;;;;14.13;6.20;;;2.40;99.90;;;;;;4997966;28;20482;-41
2020/12/05 00:09:34;;;;;;;9.93;4.15;;;2.40;99.90;;;;;;5004461;28;20076;-42
2020/12/05 00:12:07;;;;;;;11.80;5.68;;;2.40;99.90;;;;;;5005614;28;20528;-42
2020/12/05 00:14:33;;;;;;;13.18;6.10;;;2.30;99.90;;;;;;4984529;28;20025;-41
2020/12/05 00:16:59;;;;;;;12.90;6.43;;;2.20;99.90;;;;;;4995112;28;20081;-40
2020/12/05 00:19:24;;;;;;;11.27;6.18;;;2.20;99.90;;;;;;5003246;28;20096;-42
2020/12/05 00:21:51;;;;;;;17.40;6.45;;;2.20;99.90;;;;;;5005585;28;20034;-39
2020/12/05 00:24:17;;;;;;;15.82;6.95;;;2.00;99.90;;;;;;4991885;28;20066;-40
2020/12/05 00:26:43;;;;;;;13.27;6.57;;;1.90;99.90;;;;;;4993876;28;20057;-40
2020/12/05 00:29:08;;;;;;;16.98;6.88;;;2.10;99.90;;;;;;5010363;28;20493;-40
2020/12/05 00:31:34;;;;;;;14.95;6.60;;;2.10;99.90;;;;;;5011522;28;20038;-41
2020/12/05 00:33:59;;;;;;;12.65;6.28;;;2.00;99.90;;;;;;4981120;28;20482;-41
2020/12/05 00:36:25;;;;;;;15.75;6.25;;;2.00;99.90;;;;;;4990695;28;20058;-42
2020/12/05 00:38:51;;;;;;;16.50;6.68;;;2.00;99.90;;;;;;4989128;28;20500;-41
2020/12/05 00:41:18;;;;;;;15.50;6.80;;;1.90;99.90;;;;;;4992379;28;20035;-42
2020/12/05 00:43:43;;;;;;;21.42;6.80;;;1.80;99.90;;;;;;4990076;28;20348;-41
2020/12/05 00:46:09;;;;;;;15.82;7.90;;;1.70;99.90;;;;;;4992795;28;20048;-42
2020/12/05 00:48:34;;;;;;;21.27;7.90;;;1.70;99.90;;;;;;5001058;28;20038;-40
2020/12/05 00:51:00;;;;;;;17.35;8.52;;;1.60;99.90;;;;;;4991025;28;20384;-42
2020/12/05 00:53:25;;;;;;;14.40;7.28;;;1.60;99.90;;;;;;4991857;28;20049;-45
2020/12/05 00:55:51;;;;;;;13.73;6.70;;;1.70;99.90;;;;;;4991628;28;20049;-43
2020/12/05 00:58:16;;;;;;;20.17;7.30;;;1.70;99.90;;;;;;4988777;28;20050;-43
2020/12/05 01:00:43;;;;;;;14.85;7.43;;;1.70;99.90;;;;;;4993339;28;20465;-42
2020/12/05 01:03:08;;;;;;;17.10;6.50;;;1.70;99.90;;;;;;4991833;28;20105;-43
2020/12/05 01:05:35;;;;;;;15.15;6.80;;;1.70;99.90;;;;;;4991516;28;20113;-42
2020/12/05 01:08:05;;;;;;;12.68;6.97;;;1.60;99.90;;;;;;4992248;28;20026;-40
2020/12/05 01:10:32;;;;;;;15.80;7.78;;;1.60;99.90;;;;;;4987367;28;20042;-43
2020/12/05 01:12:57;;;;;;;14.48;6.82;;;1.60;99.90;;;;;;4983327;28;20114;-44
2020/12/05 01:15:23;;;;;;;17.25;8.32;;;1.50;99.90;;;;;;4977398;28;20027;-46
2020/12/05 01:17:49;;;;;;;20.17;8.05;;;1.60;99.90;;;;;;4975553;28;20041;-39
2020/12/05 01:20:14;;;;;;;16.45;7.25;;;1.50;99.90;;;;;;4975289;28;20487;-41
2020/12/05 01:22:40;;;;;;;14.13;6.50;;;1.50;99.90;;;;;;4983805;28;20113;-40
2020/12/05 01:25:07;;;;;;;18.13;7.03;;;1.40;99.90;;;;;;4998850;28;20037;-41
2020/12/05 01:27:34;;;;;;;15.48;7.00;;;1.40;99.90;;;;;;4989625;28;20097;-41
2020/12/05 01:29:59;;;;;;;17.00;7.63;;;1.50;99.90;;;;;;4968276;28;20388;-44
2020/12/05 01:32:25;;;;;;;14.68;6.72;;;1.40;99.90;;;;;;4992036;28;20030;-43
2020/12/05 01:34:51;;;;;;;17.17;7.35;;;1.50;99.90;;;;;;4972410;28;20030;-41
2020/12/05 01:37:16;;;;;;;14.38;7.63;;;1.50;99.90;;;;;;4986581;28;20065;-43
2020/12/05 01:39:42;;;;;;;17.38;7.25;;;1.50;99.90;;;;;;4994296;28;20383;-42
2020/12/05 01:42:07;;;;;;;15.85;7.15;;;1.50;99.90;;;;;;5001315;28;20041;-42
2020/12/05 01:44:33;;;;;;;24.20;8.23;;;1.50;99.90;;;;;;4991612;28;20385;-43
2020/12/05 01:46:59;;;;;;;15.98;6.28;;;1.50;99.90;;;;;;4991959;28;20034;-42
2020/12/05 01:49:25;;;;;;;13.85;6.75;;;1.60;99.90;;;;;;4997503;28;20037;-44
2020/12/05 01:51:51;;;;;;;14.80;7.68;;;1.60;99.90;;;;;;4991030;28;20387;-42
2020/12/05 01:54:17;;;;;;;16.88;7.13;;;1.50;99.90;;;;;;4991486;28;20049;-41
2020/12/05 01:56:45;;;;;;;19.75;7.53;;;1.50;99.90;;;;;;4993412;28;20034;-41
2020/12/05 01:59:11;;;;;;;17.00;7.72;;;1.50;99.90;;;;;;4992005;28;20039;-43
2020/12/05 02:01:39;;;;;;;14.30;6.10;;;1.50;99.90;;;;;;4993580;28;20046;-40
2020/12/05 02:04:05;;;;;;;12.05;6.65;;;1.50;99.90;;;;;;4991338;28;20061;-41
2020/12/05 02:06:39;;;;;;;18.02;8.70;;;1.60;99.90;;;;;;4991229;28;20336;-41
2020/12/05 02:09:14;;;;;;;17.17;8.07;;;1.50;99.90;;;;;;4989768;28;20320;-41
2020/12/05 02:11:46;;;;;;;23.10;8.82;;;1.50;99.90;;;;;;4989245;28;20491;-42
2020/12/05 02:14:16;;;;;;;15.00;7.60;;;1.60;99.90;;;;;;4973256;28;20126;-42
2020/12/05 02:16:43;;;;;;;19.45;7.93;;;1.60;99.90;;;;;;4990229;28;20368;-42
2020/12/05 02:19:15;;;;;;;15.20;8.43;;;1.50;99.90;;;;;;4990544;28;20042;-41
2020/12/05 02:21:42;;;;;;;20.42;8.60;;;1.50;99.90;;;;;;4993824;28;20023;-43
2020/12/05 02:24:09;;;;;;;17.65;7.05;;;1.60;99.90;;;;;;5011433;28;20099;-40
2020/12/05 02:26:35;;;;;;;14.75;6.68;;;1.60;99.90;;;;;;4975640;28;20475;-40
2020/12/05 02:29:01;;;;;;;17.27;6.88;;;1.60;99.90;;;;;;4995268;28;20049;-42
2020/12/05 02:31:27;;;;;;;15.73;8.00;;;1.70;99.90;;;;;;4991598;28;20034;-41
2020/12/05 02:33:52;;;;;;;17.40;7.00;;;1.70;99.90;;;;;;5001439;28;20477;-41
2020/12/05 02:36:18;;;;;;;15.95;6.43;;;1.60;99.90;;;;;;4993408;28;20542;-39
2020/12/05 02:39:09;;;;;;;19.58;7.57;;;1.70;99.90;;;;;;4994834;28;20027;-41
2020/12/05 02:41:39;;;;;;;18.42;6.47;;;1.70;99.90;;;;;;4992029;28;20038;-42
2020/12/05 02:44:05;;;;;;;12.25;6.25;;;1.80;99.90;;;;;;4992742;28;20034;-44
2020/12/05 02:46:31;;;;;;;13.88;6.55;;;1.80;99.90;;;;;;4992559;28;20486;-42
2020/12/05 02:48:57;;;;;;;12.98;6.13;;;1.80;99.90;;;;;;4994018;28;20042;-42
2020/12/05 02:51:22;;;;;;;13.00;5.82;;;1.80;99.90;;;;;;5003947;28;20037;-42
2020/12/05 02:53:48;;;;;;;13.00;5.95;;;1.80;99.90;;;;;;4997690;28;20080;-42
2020/12/05 02:56:18;;;;;;;12.02;5.80;;;1.80;99.90;;;;;;5008756;28;20121;-43
2020/12/05 02:58:46;;;;;;;12.73;6.55;;;1.80;99.90;;;;;;5004009;28;20038;-42
2020/12/05 03:01:12;;;;;;;16.40;6.45;;;1.80;99.90;;;;;;5000866;28;20038;-43
2020/12/05 03:03:39;;;;;;;17.13;6.15;;;1.80;99.90;;;;;;4993095;28;20093;-42
2020/12/05 03:06:09;;;;;;;19.90;7.50;;;1.90;99.90;;;;;;4993480;28;20452;-42
2020/12/05 03:08:35;;;;;;;15.07;6.43;;;1.80;99.90;;;;;;5013397;28;20061;-42
2020/12/05 03:11:01;;;;;;;18.15;6.05;;;1.80;99.90;;;;;;5007443;28;20318;-41
2020/12/05 03:13:27;;;;;;;16.65;5.85;;;1.70;99.90;;;;;;5000042;28;20034;-42
2020/12/05 03:15:52;;;;;;;16.10;6.22;;;1.70;99.90;;;;;;4992124;28;20431;-42
2020/12/05 03:18:18;;;;;;;16.65;6.03;;;1.80;99.90;;;;;;4993356;28;20038;-42
2020/12/05 03:20:44;;;;;;;12.48;5.65;;;1.80;99.90;;;;;;4997353;28;20054;-41
2020/12/05 03:23:09;;;;;;;13.13;4.93;;;1.80;99.90;;;;;;5003395;28;20150;-39
2020/12/05 03:25:35;;;;;;;13.38;6.05;;;1.80;99.90;;;;;;4992428;28;20102;-42
2020/12/05 03:28:00;;;;;;;12.75;6.55;;;1.80;99.90;;;;;;4993037;28;20396;-41
2020/12/05 03:30:26;;;;;;;15.65;6.30;;;1.80;99.90;;;;;;4992522;28;20113;-43
2020/12/05 03:32:54;;;;;;;13.80;5.60;;;1.80;99.90;;;;;;5003127;28;20495;-42
2020/12/05 03:35:19;;;;;;;15.65;6.13;;;1.80;99.90;;;;;;4995968;28;20480;-43
2020/12/05 03:37:45;;;;;;;18.00;5.72;;;1.90;99.90;;;;;;4991061;28;20034;-42
2020/12/05 03:40:10;;;;;;;15.85;5.47;;;1.90;99.90;;;;;;4991909;28;20030;-39
2020/12/05 03:42:38;;;;;;;11.98;5.45;;;2.00;99.90;;;;;;4992192;28;20042;-41
2020/12/05 03:45:04;;;;;;;11.82;4.95;;;2.00;99.90;;;;;;4991676;28;20072;-41
2020/12/05 03:47:30;;;;;;;13.13;5.38;;;2.10;99.90;;;;;;5007071;28;20049;-40
2020/12/05 03:49:55;;;;;;;13.68;5.85;;;2.20;99.90;;;;;;5007775;28;20038;-43
2020/12/05 03:52:21;;;;;;;16.48;6.25;;;2.30;99.90;;;;;;5010780;28;20030;-41
2020/12/05 03:54:46;;;;;;;13.85;7.03;;;2.30;99.90;;;;;;4991452;28;20344;-41
2020/12/05 03:57:14;;;;;;;12.02;5.75;;;2.40;99.90;;;;;;4992317;28;20030;-42
2020/12/05 03:59:39;;;;;;;13.05;5.95;;;2.50;99.90;;;;;;4991686;28;20030;-42
2020/12/05 04:02:05;;;;;;;14.48;6.05;;;2.50;99.90;;;;;;4990754;28;20042;-43
2020/12/05 04:04:30;;;;;;;15.93;5.70;;;2.60;99.90;;;;;;4991762;28;20082;-41
2020/12/05 04:06:56;;;;;;;16.55;6.22;;;2.60;99.90;;;;;;4992511;28;20308;-43
2020/12/05 04:09:22;;;;;;;12.43;5.70;;;2.70;99.90;;;;;;4995402;28;20152;-41
2020/12/05 04:11:47;;;;;;;13.65;6.38;;;2.70;99.90;;;;;;4991548;28;20070;-40
2020/12/05 04:14:13;;;;;;;14.80;5.50;;;2.80;99.90;;;;;;4988983;28;20057;-40
2020/12/05 04:16:39;;;;;;;10.48;5.35;;;2.80;99.90;;;;;;4993507;28;20112;-41
2020/12/05 04:19:05;;;;;;;15.45;5.40;;;2.90;99.90;;;;;;4996541;28;20038;-43
2020/12/05 04:21:30;;;;;;;14.48;6.32;;;2.90;99.90;;;;;;4992034;28;20038;-41
2020/12/05 04:23:56;;;;;;;16.52;5.53;;;2.90;99.90;;;;;;4991193;28;20427;-42
2020/12/05 04:26:23;;;;;;;20.88;7.45;;;2.90;99.90;;;;;;4991615;28;20109;-41
2020/12/05 04:28:49;;;;;;;15.48;6.60;;;3.00;99.90;;;;;;4991452;28;20034;-40
2020/12/05 04:31:15;;;;;;;10.27;5.78;;;3.00;99.90;;;;;;4990204;28;20034;-41
2020/12/05 04:33:41;;;;;;;11.68;5.20;;;3.00;99.90;;;;;;4991103;28;20490;-40
2020/12/05 04:36:07;;;;;;;16.83;6.38;;;3.00;99.90;;;;;;4990970;28;20057;-41
2020/12/05 04:38:32;;;;;;;13.25;6.43;;;3.00;99.90;;;;;;4991601;28;20034;-41
2020/12/05 04:40:59;;;;;;;16.08;6.47;;;3.00;99.90;;;;;;4990561;28;20040;-41
2020/12/05 04:43:25;;;;;;;16.80;6.50;;;3.00;99.90;;;;;;4990292;28;20038;-44
2020/12/05 04:45:52;;;;;;;11.98;6.63;;;3.00;99.90;;;;;;4997712;28;20452;-42
2020/12/05 04:48:18;;;;;;;11.90;6.20;;;3.00;99.90;;;;;;4991499;28;20037;-41
2020/12/05 04:50:46;;;;;;;15.27;6.38;;;3.10;99.90;;;;;;4990195;28;20042;-41
2020/12/05 04:53:19;;;;;;;12.90;6.38;;;3.10;99.90;;;;;;4973417;28;20365;-39
2020/12/05 04:55:46;;;;;;;14.10;5.97;;;3.10;99.90;;;;;;4989594;28;20060;-41
2020/12/05 04:58:19;;;;;;;15.63;6.25;;;3.10;99.90;;;;;;4973156;28;20043;-41
2020/12/05 05:00:46;;;;;;;15.70;7.43;;;3.10;99.90;;;;;;4995597;28;20118;-41
2020/12/05 05:03:15;;;;;;;16.20;8.13;;;3.20;99.90;;;;;;4991705;28;20038;-41
2020/12/05 05:05:41;;;;;;;19.38;7.72;;;3.20;99.90;;;;;;4989491;28;20033;-44
2020/12/05 05:08:07;;;;;;;17.63;7.63;;;3.20;99.90;;;;;;4991432;28;20101;-42
2020/12/05 05:10:35;;;;;;;13.82;7.93;;;3.20;99.90;;;;;;4989295;28;20196;-43
2020/12/05 05:13:13;;;;;;;19.85;7.25;;;3.20;99.90;;;;;;4992846;28;20031;-41
2020/12/05 05:15:39;;;;;;;16.02;7.28;;;3.20;99.90;;;;;;4990637;28;20030;-42
2020/12/05 05:18:05;;;;;;;14.23;7.22;;;3.20;99.90;;;;;;4990594;28;20070;-40
2020/12/05 05:20:37;;;;;;;13.13;6.68;;;3.20;99.90;;;;;;4987570;28;20030;-41
2020/12/05 05:23:21;;;;;;;16.75;7.57;;;3.20;99.90;;;;;;4973541;28;20387;-46
2020/12/05 05:26:01;;;;;;;15.18;6.68;;;3.30;99.90;;;;;;4990464;28;20084;-43
2020/12/05 05:28:32;;;;;;;13.88;7.47;;;3.30;99.90;;;;;;4990716;28;20066;-49
2020/12/05 05:31:28;;;;;;;16.90;7.63;;;3.30;99.90;;;;;;4989805;28;20491;-42
2020/12/05 05:33:55;;;;;;;14.75;7.97;;;3.30;99.90;;;;;;4983740;28;20038;-48
2020/12/05 05:36:29;;;;;;;23.52;10.65;;;3.40;99.90;;;;;;4989791;28;20038;-46
2020/12/05 05:39:08;;;;;;;17.17;8.07;;;3.40;99.90;;;;;;4990544;28;20110;-43
2020/12/05 05:41:37;;;;;;;27.23;10.88;;;3.30;99.90;;;;;;4991216;28;20440;-49
2020/12/05 05:44:12;;;;;;;20.55;8.20;;;3.30;99.90;;;;;;4990291;28;20034;-45
2020/12/05 05:46:42;;;;;;;17.95;9.07;;;3.30;99.90;;;;;;5000092;28;20068;-42
2020/12/05 05:49:13;;;;;;;18.60;9.43;;;3.40;99.90;;;;;;4995107;28;20126;-50
2020/12/05 05:51:43;;;;;;;20.27;8.65;;;3.40;99.90;;;;;;4998442;28;20122;-44
2020/12/05 05:54:19;;;;;;;20.63;9.27;;;3.40;99.90;;;;;;4990307;28;20041;-44
2020/12/05 05:56:56;;;;;;;13.23;7.85;;;3.40;99.90;;;;;;4971830;28;20058;-37
2020/12/05 05:59:22;;;;;;;18.10;7.50;;;3.50;99.90;;;;;;4990637;28;20034;-44
2020/12/05 06:01:53;;;;;;;14.23;8.38;;;3.50;99.90;;;;;;4993132;28;20040;-49
2020/12/05 06:04:31;;;;;;;31.15;8.80;;;3.50;99.90;;;;;;5011433;28;20085;-45
2020/12/05 06:06:59;;;;;;;17.85;8.35;;;3.40;99.90;;;;;;4976574;28;20134;-44
2020/12/05 06:09:28;;;;;;;17.38;8.27;;;3.40;99.90;;;;;;4995266;28;20030;-42
2020/12/05 06:11:55;;;;;;;15.18;7.88;;;3.50;99.90;;;;;;4994692;28;20061;-46
2020/12/05 06:14:21;;;;;;;18.60;8.25;;;3.40;99.90;;;;;;4974844;28;20566;-43
2020/12/05 06:16:52;;;;;;;22.45;9.73;;;3.50;99.90;;;;;;4993413;28;20613;-47
2020/12/05 06:19:18;;;;;;;17.15;9.40;;;3.40;99.90;;;;;;4999202;28;20498;-44
2020/12/05 06:21:49;;;;;;;14.98;8.38;;;3.40;99.90;;;;;;4965802;28;20097;-47
2020/12/05 06:24:16;;;;;;;16.08;8.63;;;3.50;99.90;;;;;;5005218;28;20042;-42
2020/12/05 06:26:44;;;;;;;17.08;8.77;;;3.40;99.90;;;;;;4998767;28;20034;-43
2020/12/05 06:29:11;;;;;;;20.83;9.82;;;3.40;99.90;;;;;;5009616;28;20042;-43
2020/12/05 06:31:41;;;;;;;17.45;10.00;;;3.40;99.90;;;;;;4992005;28;20037;-40
2020/12/05 06:34:32;;;;;;;18.98;9.73;;;3.40;99.90;;;;;;4995614;28;20046;-42
2020/12/05 06:36:58;;;;;;;19.00;8.38;;;3.50;99.90;;;;;;4996761;28;20348;-45
2020/12/05 06:39:26;;;;;;;16.73;7.60;;;3.50;99.90;;;;;;4997263;28;20158;-44
2020/12/05 06:41:53;;;;;;;20.45;9.23;;;3.50;99.90;;;;;;4991126;28;20081;-42
2020/12/05 06:44:35;;;;;;;18.65;9.27;;;3.50;99.90;;;;;;4998011;28;20057;-47
2020/12/05 06:47:03;;;;;;;15.50;8.50;;;3.50;99.90;;;;;;5008419;28;20165;-45
2020/12/05 06:49:37;;;;;;;17.70;10.07;;;3.50;99.90;;;;;;4992648;28;20141;-43
2020/12/05 06:52:25;;;;;;;15.55;9.55;;;3.50;99.90;;;;;;5009085;28;20531;-41
2020/12/05 06:55:00;;;;;;;15.93;8.73;;;3.40;99.90;;;;;;4998793;28;20026;-42
2020/12/05 06:57:28;;;;;;;15.02;7.25;;;3.40;99.90;;;;;;5006473;28;20030;-48
2020/12/05 07:00:10;;;;;;;16.92;8.05;;;3.40;99.90;;;;;;4994090;28;20495;-42
2020/12/05 07:02:36;;;;;;;15.73;8.40;;;3.40;99.90;;;;;;4997393;28;20092;-44
2020/12/05 07:05:16;;;;;;;18.02;8.75;;;3.40;99.90;;;;;;4992976;28;20395;-43
2020/12/05 07:07:43;;;;;;;16.67;9.02;;;3.30;99.90;;;;;;4994623;28;20105;-44
2020/12/05 07:10:09;;;;;;;20.67;10.07;;;3.20;99.90;;;;;;4991898;28;20035;-49
2020/12/05 07:12:36;;;;;;;16.80;9.80;;;3.30;99.90;;;;;;4992336;28;20085;-43
2020/12/05 07:15:21;;;;;;;21.75;11.05;;;3.20;99.90;;;;;;4992443;28;20031;-43
2020/12/05 07:17:48;;;;;;;17.40;9.75;;;3.20;99.90;;;;;;4995502;28;20030;-41
2020/12/05 07:20:14;;;;;;;18.05;10.77;;;3.10;99.90;;;;;;4974966;28;20034;-45
2020/12/05 07:22:40;;;;;;;16.50;9.27;;;3.10;99.90;;;;;;4993444;28;20092;-50
2020/12/05 07:25:05;;;;;;;15.88;7.40;;;3.10;99.90;;;;;;4991179;28;20360;-48
2020/12/05 07:27:31;;;;;;;17.95;9.55;;;3.20;99.90;;;;;;4993433;28;20030;-43
2020/12/05 07:29:57;;;;;;;16.05;9.88;;;3.20;99.90;;;;;;4989241;28;20041;-42
2020/12/05 07:32:28;;;;;;;15.27;8.15;;;3.10;99.90;;;;;;4992206;28;20037;-43
2020/12/05 07:34:54;;;;;;;19.38;8.48;;;3.20;99.90;;;;;;4991151;28;20026;-42
2020/12/05 07:37:27;;;;;;;16.83;8.10;;;3.20;99.90;;;;;;4974961;28;20039;-45
2020/12/05 07:39:54;;;;;;;16.85;8.52;;;3.20;99.90;;;;;;4971337;28;20183;-42
2020/12/05 07:42:20;;;;;;;14.30;9.13;;;3.20;99.90;;;;;;4993976;28;20042;-43
2020/12/05 07:44:46;;;;;;;13.75;7.30;;;3.20;99.90;;;;;;4990835;28;20521;-40
2020/12/05 07:47:21;;;;;;;16.38;8.48;;;3.20;99.90;;;;;;4990677;28;20105;-50
2020/12/05 07:49:54;;;;;;;13.13;7.57;;;3.20;99.90;;;;;;4975066;28;20089;-48
2020/12/05 07:52:21;;;;;;;13.25;7.50;;;3.20;99.90;;;;;;4991375;28;20046;-43
2020/12/05 07:54:56;;;;;;;15.88;7.82;;;3.20;99.90;;;;;;4994639;28;20029;-43
2020/12/05 07:58:04;;;;;;;12.65;6.50;;;3.30;99.90;;;;;;4993000;28;20027;-42
2020/12/05 08:00:32;;;;;;;14.23;6.68;;;3.30;99.90;;;;;;5015643;22;20157;-50
2020/12/05 08:03:01;;;;;;;15.50;7.15;;;3.30;99.90;;;;;;5063844;28;20122;-45
2020/12/05 08:05:44;;;;;;;12.45;7.07;;;3.30;99.90;;;;;;5069427;28;20036;-44
2020/12/05 08:08:14;;;;;;;13.90;7.70;;;3.30;99.90;;;;;;5071860;28;20048;-37
2020/12/05 08:10:40;;;;;;;13.43;8.18;;;3.30;99.90;;;;;;5071993;28;20112;-42
2020/12/05 08:13:06;;;;;;;14.18;7.63;;;3.30;99.90;;;;;;5069623;28;20115;-46
2020/12/05 08:15:36;;;;;;;13.48;7.10;;;3.30;99.90;;;;;;5063990;28;20016;-44
2020/12/05 08:18:05;;;;;;;20.30;8.18;;;3.30;99.90;;;;;;5065353;28;20037;-45
2020/12/05 08:20:31;;;;;;;13.50;7.95;;;3.30;99.90;;;;;;5051112;28;20036;-45
2020/12/05 08:22:59;;;;;;;14.13;7.78;;;3.30;99.90;;;;;;5059317;28;21056;-41
2020/12/05 08:25:26;;;;;;;16.25;8.45;;;3.30;99.90;;;;;;5078194;28;20020;-46
2020/12/05 08:27:54;;;;;;;14.07;6.85;;;3.20;99.90;;;;;;5079855;28;20039;-44
2020/12/05 08:30:20;;;;;;;14.70;6.93;;;3.20;99.90;;;;;;5034083;28;20032;-41
2020/12/05 08:32:47;;;;;;;14.68;7.15;;;3.30;99.90;;;;;;5053925;28;20028;-40
2020/12/05 08:35:16;;;;;;;12.50;6.15;;;3.30;99.90;;;;;;5048507;28;20069;-42
2020/12/05 08:37:44;;;;;;;12.80;5.60;;;3.30;99.90;;;;;;5048717;28;20024;-38
2020/12/05 08:40:17;;;;;;;13.07;6.78;;;3.30;99.90;;;;;;5047387;28;20024;-40
2020/12/05 08:42:47;;;;;;;17.83;7.13;;;3.40;99.90;;;;;;5046490;28;20040;-43
2020/12/05 08:45:18;;;;;;;11.57;5.93;;;3.40;99.90;;;;;;5060577;28;20060;-46
2020/12/05 08:47:45;;;;;;;17.23;6.97;;;3.50;99.90;;;;;;5041341;28;20298;-46
2020/12/05 08:50:25;;;;;;;12.75;7.40;;;3.50;99.90;;;;;;5063612;28;20028;-44
2020/12/05 08:52:59;;;;;;;11.27;5.93;;;3.50;99.90;;;;;;5054253;28;20036;-43
2020/12/05 08:55:25;;;;;;;11.15;6.72;;;3.50;99.90;;;;;;5053454;28;20028;-49
2020/12/05 08:57:55;;;;;;;12.05;6.80;;;3.60;99.90;;;;;;5052060;28;20044;-42
2020/12/05 09:00:22;;;;;;;12.35;6.78;;;3.60;99.90;;;;;;5070551;28;20119;-41
2020/12/05 09:02:47;;;;;;;7.72;3.92;;;3.60;99.90;;;;;;5069988;28;20044;-45
2020/12/05 09:05:13;;;;;;;6.15;3.22;;;3.60;99.90;;;;;;5073045;28;20110;-37
2020/12/05 09:07:41;;;;;;;11.18;5.75;;;3.60;99.90;;;;;;5054155;28;20063;-39
2020/12/05 09:10:17;;;;;;;18.48;7.78;;;3.70;99.90;;;;;;5052877;28;20389;-39
2020/12/05 09:12:43;;;;;;;16.88;8.20;;;3.60;99.90;;;;;;5070638;28;20036;-40
2020/12/05 09:15:08;;;;;;;12.45;7.18;;;3.70;99.90;;;;;;5053554;28;20106;-40
2020/12/05 09:17:34;;;;;;;17.98;7.75;;;3.80;99.90;;;;;;5068777;28;20094;-38
2020/12/05 09:20:12;;;;;;;13.73;7.55;;;3.80;99.90;;;;;;5063670;28;20722;-39
2020/12/05 09:22:38;;;;;;;14.27;6.13;;;3.80;99.90;;;;;;5056883;28;20029;-40
2020/12/05 09:25:07;;;;;;;14.65;7.43;;;3.90;99.90;;;;;;5044997;28;20373;-37
2020/12/05 09:27:38;;;;;;;13.15;6.63;;;3.90;99.90;;;;;;5061496;28;20412;-36
2020/12/05 09:30:12;;;;;;;7.55;2.90;;;4.00;99.90;;;;;;5063010;28;20044;-37
2020/12/05 09:32:43;;;;;;;18.52;8.52;;;4.10;99.90;;;;;;5046559;28;20028;-40
2020/12/05 09:35:12;;;;;;;11.20;5.32;;;4.10;99.90;;;;;;5065491;28;20024;-37
2020/12/05 09:37:40;;;;;;;11.20;5.55;;;4.20;99.90;;;;;;5065356;28;20092;-38
2020/12/05 09:40:12;;;;;;;14.40;7.10;;;4.20;99.90;;;;;;5046797;28;20041;-40
2020/12/05 09:42:40;;;;;;;13.10;5.55;;;4.20;99.90;;;;;;5043359;28;20044;-38
2020/12/05 09:45:09;;;;;;;11.65;6.40;;;4.20;99.90;;;;;;5066974;28;20036;-38
2020/12/05 09:47:37;;;;;;;16.23;7.40;;;4.30;99.90;;;;;;5048781;28;20024;-37
2020/12/05 10:56:04;;;;;;;10.53;5.13;;;4.70;99.90;;;;;;5069553;28;20097;-38
2020/12/05 10:58:29;;;;;;;13.10;6.38;;;4.70;99.90;;;;;;5070310;28;20036;-37
2020/12/05 11:00:55;;;;;;;16.27;8.27;;;4.70;99.90;;;;;;5049939;28;20035;-42
2020/12/05 11:03:21;;;;;;;15.02;9.25;;;4.70;99.90;;;;;;5069497;28;20039;-38
2020/12/05 11:05:46;;;;;;;13.82;6.90;;;4.80;99.90;;;;;;5070398;28;20382;-40
2020/12/05 11:08:12;;;;;;;12.00;5.97;;;4.80;99.90;;;;;;5052065;28;20381;-38
2020/12/05 11:10:37;;;;;;;20.02;8.52;;;4.80;99.90;;;;;;5074826;28;20029;-40
2020/12/05 11:13:03;;;;;;;14.70;6.70;;;4.80;99.90;;;;;;5076614;28;20047;-38
2020/12/05 11:15:29;;;;;;;12.65;7.57;;;4.80;99.90;;;;;;5058317;28;20094;-38
2020/12/05 11:17:54;;;;;;;12.10;6.50;;;4.80;99.90;;;;;;5071936;28;20435;-40
2020/12/05 11:20:22;;;;;;;11.85;4.80;;;4.80;99.90;;;;;;5070558;28;20028;-43
2020/12/05 11:22:48;;;;;;;9.45;4.80;;;4.80;99.90;;;;;;5071235;28;20028;-39
2020/12/05 11:25:13;;;;;;;13.30;6.90;;;4.70;99.90;;;;;;5054715;28;20039;-38
2020/12/05 11:27:40;;;;;;;12.50;6.70;;;4.80;99.90;;;;;;5075052;28;20025;-36
2020/12/05 11:30:06;;;;;;;10.52;6.20;;;4.70;99.90;;;;;;5052904;28;20029;-39
2020/12/05 11:32:33;;;;;;;12.18;6.88;;;4.70;99.90;;;;;;5059867;28;20127;-37
2020/12/05 11:35:00;;;;;;;11.93;5.45;;;4.70;99.90;;;;;;5071983;28;20040;-37
2020/12/05 11:37:28;;;;;;;10.50;4.25;;;4.70;99.90;;;;;;5073154;28;20044;-38
2020/12/05 11:39:55;;;;;;;13.23;5.60;;;4.80;99.90;;;;;;5056360;28;20039;-45
2020/12/05 11:42:23;;;;;;;16.63;6.47;;;4.80;99.90;;;;;;5072388;28;20036;-38
2020/12/05 14:02:38;;;;;;;6.07;2.60;;;5.20;99.90;;;;;;5053216;28;20059;-42
2020/12/05 14:05:04;;;;;;;5.13;2.00;;;5.30;99.90;;;;;;5079279;28;20381;-40
2020/12/05 14:07:29;;;;;;;5.97;3.00;;;5.20;99.90;;;;;;5068064;28;20024;-38
2020/12/05 14:09:57;;;;;;;10.15;4.53;;;5.20;99.90;;;;;;5057176;28;20033;-39
2020/12/05 14:12:24;;;;;;;8.05;3.13;;;5.20;99.90;;;;;;5057702;28;20101;-41
2020/12/05 14:14:50;;;;;;;8.30;2.88;;;5.20;99.90;;;;;;5063234;28;20028;-41
2020/12/05 14:17:15;;;;;;;6.68;3.05;;;5.20;99.90;;;;;;5065802;28;20412;-46
2020/12/05 14:19:41;;;;;;;6.75;2.83;;;5.10;99.90;;;;;;5059499;28;20037;-39
2020/12/05 14:22:07;;;;;;;8.52;3.03;;;5.10;99.90;;;;;;5064580;28;20115;-39
2020/12/05 14:24:33;;;;;;;6.70;2.50;;;5.00;99.90;;;;;;5065207;28;20476;-38
2020/12/05 14:27:00;;;;;;;6.70;2.78;;;5.00;99.90;;;;;;5050604;28;20131;-39
2020/12/05 14:29:25;;;;;;;6.40;2.67;;;4.90;99.90;;;;;;5055845;28;20029;-38
2020/12/05 14:31:54;;;;;;;7.82;2.42;;;4.90;99.90;;;;;;5061179;28;20032;-38
2020/12/05 14:34:22;;;;;;;8.25;3.10;;;4.90;99.90;;;;;;5065930;28;20060;-38
2020/12/05 14:36:47;;;;;;;7.03;2.53;;;5.00;99.90;;;;;;5067496;28;20024;-38
2020/12/05 14:39:13;;;;;;;8.10;2.67;;;5.00;99.90;;;;;;5067383;28;20397;-38
2020/12/05 14:41:40;;;;;;;6.72;2.38;;;5.00;99.90;;;;;;5055656;28;20028;-38
2020/12/05 14:44:06;;;;;;;10.27;2.65;;;5.10;99.90;;;;;;5057348;28;20124;-41
2020/12/05 14:46:31;;;;;;;8.13;3.20;;;5.10;99.90;;;;;;5057009;28;20108;-40
2020/12/05 14:48:57;;;;;;;7.32;2.78;;;5.10;99.90;;;;;;5072801;28;20032;-39
2020/12/05 14:51:22;;;;;;;8.43;3.10;;;5.10;99.90;;;;;;5042013;28;20427;-40
2020/12/05 14:53:48;;;;;;;8.18;3.13;;;5.00;99.90;;;;;;5056545;28;20039;-38
2020/12/05 14:56:15;;;;;;;7.22;3.13;;;5.00;99.90;;;;;;5070079;28;20048;-41
2020/12/05 14:58:44;;;;;;;9.23;3.10;;;5.00;99.90;;;;;;5064732;28;20020;-39
2020/12/05 15:01:12;;;;;;;9.48;3.05;;;4.90;99.90;;;;;;5076299;28;20052;-40
2020/12/05 15:03:39;;;;;;;5.95;1.90;;;4.90;99.90;;;;;;5066212;28;20059;-41
2020/12/05 15:06:07;;;;;;;5.60;2.33;;;4.90;99.90;;;;;;5071771;28;20054;-40
2020/12/05 15:08:33;;;;;;;11.95;2.20;;;4.90;99.90;;;;;;5074478;28;20434;-39
2020/12/05 15:11:00;;;;;;;9.18;2.70;;;4.90;99.90;;;;;;5074520;28;20166;-44
2020/12/05 15:13:26;;;;;;;9.63;2.90;;;4.90;99.90;;;;;;5071413;28;20488;-42
2020/12/05 15:15:53;;;;;;;7.78;2.40;;;4.90;99.90;;;;;;5071464;28;20112;-44
2020/12/05 15:18:20;;;;;;;9.95;2.30;;;4.80;99.90;;;;;;5073919;28;20079;-43
2020/12/05 15:21:00;;;;;;;6.07;2.30;;;4.80;99.90;;;;;;5073333;28;20040;-41
2020/12/05 15:23:29;;;;;;;8.02;1.80;;;4.70;99.90;;;;;;5070046;28;20032;-39
2020/12/05 15:25:57;;;;;;;6.22;1.60;;;4.70;99.90;;;;;;5053789;28;20021;-42
2020/12/05 15:28:24;;;;;;;4.82;1.90;;;4.60;99.90;;;;;;5071190;28;20129;-37
2020/12/05 15:30:51;;;;;;;5.15;2.20;;;4.60;99.90;;;;;;5050927;28;20472;-39
2020/12/05 15:33:20;;;;;;;5.20;2.10;;;4.50;99.90;;;;;;5071486;28;20044;-42
2020/12/05 15:35:49;;;;;;;4.75;2.25;;;4.50;99.90;;;;;;5069974;28;20473;-40
2020/12/05 15:38:16;;;;;;;10.30;3.00;;;4.50;99.90;;;;;;5067951;28;20044;-39
2020/12/05 15:40:45;;;;;;;4.78;3.03;;;4.30;99.90;;;;;;5070597;28;20041;-44
2020/12/05 15:43:12;;;;;;;14.38;5.40;;;4.30;99.90;;;;;;5069216;28;20031;-38
2020/12/05 15:45:40;;;;;;;10.90;5.05;;;4.20;99.90;;;;;;5062923;28;20036;-40
2020/12/05 16:18:23;;;;;;;11.18;4.07;;;4.50;99.90;;;;;;5039417;28;20104;-46
2020/12/05 16:20:49;;;;;;;8.23;3.63;;;4.50;99.90;;;;;;5071450;28;20040;-45
2020/12/05 16:23:14;;;;;;;7.15;3.25;;;4.50;99.90;;;;;;5044730;28;20050;-45
2020/12/05 16:25:40;;;;;;;6.32;3.40;;;4.50;99.90;;;;;;5066228;28;20036;-43
2020/12/05 16:28:06;;;;;;;6.45;3.42;;;4.50;99.90;;;;;;5045438;28;20024;-40
2020/12/05 16:30:31;;;;;;;11.25;4.50;;;4.50;99.90;;;;;;5060383;28;20506;-40
2020/12/05 16:32:57;;;;;;;6.78;3.53;;;4.50;99.90;;;;;;5068851;28;20098;-41
2020/12/05 16:35:23;;;;;;;8.70;3.70;;;4.40;99.90;;;;;;5063038;28;20037;-41
2020/12/05 16:37:52;;;;;;;7.82;3.45;;;4.50;99.90;;;;;;5070068;28;20029;-43
2020/12/05 16:40:18;;;;;;;6.68;3.38;;;4.50;99.90;;;;;;5067955;28;20097;-41
2020/12/05 16:42:43;;;;;;;8.27;4.20;;;4.50;99.90;;;;;;5054401;28;20048;-45
2020/12/05 16:45:09;;;;;;;9.52;4.13;;;4.50;99.90;;;;;;5071509;28;20043;-45
2020/12/05 16:47:35;;;;;;;6.30;3.40;;;4.40;99.90;;;;;;5068676;28;20514;-43